Time;durP1;ratioP1;P1;durP2;ratioP2;P2;SDS_P1;SDS_P2;PMS_P1;PMS_P2;Temp;Humidity;BMP_temperature;BMP_pressure;BME280_temperature;BME280_humidity;BME280_pressure;Samples;Min_cycle;Max_cycle;Signal;HPM_P1;HPM_P2
2024/01/25 00:02:05;;;;;;;17.90;4.33;;;12.50;99.90;;;;;;5007048;28;20274;-68
2024/01/25 00:04:30;;;;;;;19.73;4.50;;;12.40;99.90;;;;;;5006736;28;20273;-68
2024/01/25 00:06:56;;;;;;;18.90;5.97;;;12.40;99.90;;;;;;5010778;28;20235;-68
2024/01/25 00:09:22;;;;;;;16.17;3.67;;;12.40;99.90;;;;;;5008098;28;20800;-69
2024/01/25 00:11:47;;;;;;;15.93;4.53;;;12.50;99.90;;;;;;5007485;28;21220;-69
2024/01/25 00:14:13;;;;;;;13.73;4.37;;;12.40;99.90;;;;;;5007706;28;20829;-69
2024/01/25 00:16:42;;;;;;;39.73;6.73;;;12.50;99.90;;;;;;5007224;28;20180;-68
2024/01/25 00:19:08;;;;;;;16.13;4.10;;;12.40;99.90;;;;;;5011724;28;20443;-68
2024/01/25 00:21:33;;;;;;;17.30;5.20;;;12.50;99.90;;;;;;5012190;28;20443;-68
2024/01/25 00:23:59;;;;;;;19.90;5.10;;;12.50;99.90;;;;;;5005427;28;20698;-68
2024/01/25 00:26:24;;;;;;;14.47;4.57;;;12.50;99.90;;;;;;5012116;28;20602;-68
2024/01/25 00:28:50;;;;;;;17.13;4.63;;;12.50;99.90;;;;;;5004013;28;20199;-68
2024/01/25 00:31:15;;;;;;;12.27;3.80;;;12.50;99.90;;;;;;5007911;28;20254;-68
2024/01/25 00:33:41;;;;;;;11.67;3.80;;;12.50;99.90;;;;;;5009415;28;20262;-69
2024/01/25 00:36:07;;;;;;;19.60;5.37;;;12.60;99.90;;;;;;5005735;28;20290;-69
2024/01/25 00:38:33;;;;;;;15.83;4.40;;;12.50;99.90;;;;;;5007965;28;20611;-69
2024/01/25 00:40:59;;;;;;;12.40;3.50;;;12.50;99.90;;;;;;5003086;28;20515;-69
2024/01/25 00:43:25;;;;;;;14.73;3.67;;;12.60;99.90;;;;;;5009591;28;20205;-69
2024/01/25 00:45:51;;;;;;;14.70;4.90;;;12.50;99.90;;;;;;5009280;28;20181;-69
2024/01/25 00:48:17;;;;;;;22.90;4.70;;;12.50;99.90;;;;;;5010468;28;21037;-69
2024/01/25 00:50:43;;;;;;;17.70;4.33;;;12.50;99.90;;;;;;5007147;28;20441;-69
2024/01/25 00:53:09;;;;;;;17.77;6.17;;;12.40;99.90;;;;;;5010028;28;20824;-68
2024/01/25 00:55:35;;;;;;;20.67;4.80;;;12.40;99.90;;;;;;5004171;28;20173;-68
2024/01/25 00:58:00;;;;;;;20.27;5.27;;;12.40;99.90;;;;;;5008137;28;20817;-68
2024/01/25 01:00:26;;;;;;;19.00;4.43;;;12.40;99.90;;;;;;5009207;28;20185;-68
2024/01/25 01:02:54;;;;;;;18.37;4.60;;;12.40;99.90;;;;;;5007601;28;20174;-68
2024/01/25 01:05:20;;;;;;;13.53;3.70;;;12.50;99.90;;;;;;5008132;28;20458;-69
2024/01/25 01:07:45;;;;;;;15.30;4.83;;;12.50;99.90;;;;;;5005374;28;20448;-69
2024/01/25 01:10:11;;;;;;;16.00;4.20;;;12.50;99.90;;;;;;5009327;28;20457;-69
2024/01/25 01:12:37;;;;;;;23.47;5.37;;;12.40;99.90;;;;;;5011147;28;20374;-69
2024/01/25 01:15:03;;;;;;;15.03;4.57;;;12.50;99.90;;;;;;5018703;28;20265;-69
2024/01/25 01:17:29;;;;;;;16.03;4.47;;;12.50;99.90;;;;;;5016264;28;20180;-69
2024/01/25 01:19:54;;;;;;;18.23;5.17;;;12.40;99.90;;;;;;5015632;28;20443;-69
2024/01/25 01:22:20;;;;;;;16.97;5.17;;;12.40;99.90;;;;;;5012213;28;20177;-69
2024/01/25 01:24:46;;;;;;;13.87;4.60;;;12.40;99.90;;;;;;5011753;28;20212;-69
2024/01/25 01:27:12;;;;;;;11.67;3.50;;;12.40;99.90;;;;;;5011012;28;20208;-69
2024/01/25 01:29:37;;;;;;;18.07;3.43;;;12.50;99.90;;;;;;5009394;28;20493;-69
2024/01/25 01:32:03;;;;;;;17.00;4.40;;;12.40;99.90;;;;;;5005899;28;20252;-69
2024/01/25 01:34:29;;;;;;;12.03;3.90;;;12.40;99.90;;;;;;5008114;28;20593;-69
2024/01/25 01:36:54;;;;;;;16.87;4.07;;;12.40;99.90;;;;;;5012024;28;20185;-69
2024/01/25 01:39:20;;;;;;;19.13;5.50;;;12.40;99.90;;;;;;5010649;28;20189;-69
2024/01/25 01:41:49;;;;;;;12.87;4.00;;;12.40;99.90;;;;;;5008126;28;20618;-69
2024/01/25 01:44:15;;;;;;;13.17;4.67;;;12.40;99.90;;;;;;5010954;28;20231;-69
2024/01/25 01:46:41;;;;;;;16.40;4.00;;;12.40;99.90;;;;;;5013677;28;20885;-69
2024/01/25 01:49:10;;;;;;;17.13;4.57;;;12.40;99.90;;;;;;5014401;28;20505;-69
2024/01/25 01:51:37;;;;;;;17.60;4.23;;;12.40;99.90;;;;;;5015091;28;21044;-69
2024/01/25 01:54:05;;;;;;;13.77;4.47;;;12.40;99.90;;;;;;5018527;28;20552;-69
2024/01/25 01:56:31;;;;;;;16.73;3.53;;;12.40;99.90;;;;;;5009457;28;20439;-69
2024/01/25 01:59:01;;;;;;;14.27;3.50;;;12.40;99.90;;;;;;5012323;28;20514;-69
2024/01/25 02:01:28;;;;;;;21.03;4.37;;;12.40;99.90;;;;;;5010417;28;21321;-69
2024/01/25 02:03:55;;;;;;;19.53;4.17;;;12.40;99.90;;;;;;5008592;28;21403;-69
2024/01/25 02:06:23;;;;;;;12.00;3.23;;;12.40;99.90;;;;;;5008792;28;20447;-69
2024/01/25 02:08:50;;;;;;;17.73;4.30;;;12.40;99.90;;;;;;5008948;28;20955;-69
2024/01/25 02:11:16;;;;;;;20.27;4.73;;;12.40;99.90;;;;;;5011494;28;20589;-69
2024/01/25 02:13:42;;;;;;;13.73;4.33;;;12.30;99.90;;;;;;5011601;28;20493;-69
2024/01/25 02:16:09;;;;;;;12.80;3.30;;;12.40;99.90;;;;;;5016524;28;20427;-69
2024/01/25 02:18:34;;;;;;;10.97;4.37;;;12.40;99.90;;;;;;5013768;28;20174;-69
2024/01/25 02:21:00;;;;;;;27.00;5.10;;;12.40;99.90;;;;;;5023140;28;20450;-69
2024/01/25 02:23:26;;;;;;;12.40;4.03;;;12.40;99.90;;;;;;5016563;28;20709;-69
2024/01/25 02:25:52;;;;;;;17.97;4.30;;;12.40;99.90;;;;;;5015720;28;20448;-69
2024/01/25 02:28:18;;;;;;;14.97;5.37;;;12.40;99.90;;;;;;5016490;28;20188;-69
2024/01/25 02:30:43;;;;;;;24.20;6.07;;;12.40;99.90;;;;;;5005504;28;20201;-69
2024/01/25 02:33:09;;;;;;;20.60;4.83;;;12.30;99.90;;;;;;5008367;28;20193;-70
2024/01/25 02:35:35;;;;;;;21.10;4.90;;;12.40;99.90;;;;;;4995175;28;20201;-67
2024/01/25 02:38:00;;;;;;;12.63;4.23;;;12.50;99.90;;;;;;5005841;28;20305;-67
2024/01/25 02:40:26;;;;;;;21.23;5.00;;;12.50;99.90;;;;;;5009904;28;21030;-68
2024/01/25 02:42:52;;;;;;;12.60;3.60;;;12.40;99.90;;;;;;5007523;28;20181;-70
2024/01/25 02:45:17;;;;;;;18.90;4.67;;;12.50;99.90;;;;;;5011250;28;20212;-68
2024/01/25 02:47:43;;;;;;;16.97;4.77;;;12.50;99.90;;;;;;5014302;28;20241;-68
2024/01/25 02:50:09;;;;;;;13.17;3.53;;;12.50;99.90;;;;;;5014526;28;20189;-68
2024/01/25 02:52:34;;;;;;;25.73;4.37;;;12.60;99.90;;;;;;5009451;28;20192;-67
2024/01/25 02:55:00;;;;;;;18.30;5.10;;;12.50;99.90;;;;;;5013601;28;21003;-68
2024/01/25 02:57:26;;;;;;;20.90;5.40;;;12.50;99.90;;;;;;5016492;28;20546;-68
2024/01/25 02:59:52;;;;;;;16.03;4.10;;;12.50;99.90;;;;;;5016551;28;20730;-68
2024/01/25 03:02:19;;;;;;;14.90;3.73;;;12.30;99.90;;;;;;5011779;28;20461;-68
2024/01/25 03:04:45;;;;;;;13.77;3.80;;;12.40;99.90;;;;;;5013736;28;20231;-67
2024/01/25 03:07:10;;;;;;;27.33;7.27;;;12.50;99.90;;;;;;5008873;28;20526;-67
2024/01/25 03:09:36;;;;;;;18.77;5.47;;;12.40;99.90;;;;;;5011615;28;20976;-68
2024/01/25 03:12:02;;;;;;;17.13;4.77;;;12.40;99.90;;;;;;5013305;28;20469;-67
2024/01/25 03:14:27;;;;;;;17.17;4.97;;;12.50;99.90;;;;;;5021540;28;20314;-67
2024/01/25 03:16:53;;;;;;;17.70;4.77;;;12.40;99.90;;;;;;5013987;28;20185;-67
2024/01/25 03:19:19;;;;;;;21.20;5.30;;;12.40;99.90;;;;;;5011810;28;20191;-67
2024/01/25 03:21:44;;;;;;;20.57;4.90;;;12.20;99.90;;;;;;5009477;28;20188;-67
2024/01/25 03:24:10;;;;;;;16.47;4.03;;;12.20;99.90;;;;;;5014737;28;20220;-67
2024/01/25 03:26:35;;;;;;;16.70;4.03;;;12.20;99.90;;;;;;5009240;28;20476;-69
2024/01/25 03:29:01;;;;;;;20.07;4.10;;;12.20;99.90;;;;;;5008625;28;20685;-68
2024/01/25 03:31:26;;;;;;;12.47;3.83;;;12.20;99.90;;;;;;5016990;28;20192;-68
2024/01/25 03:33:52;;;;;;;19.57;4.50;;;12.30;99.90;;;;;;5013327;28;20299;-68
2024/01/25 03:36:17;;;;;;;11.53;3.70;;;12.30;99.90;;;;;;5010489;28;20184;-68
2024/01/25 03:38:43;;;;;;;14.90;4.13;;;12.10;99.90;;;;;;5008507;28;20191;-68
2024/01/25 03:41:09;;;;;;;19.90;4.97;;;12.10;99.90;;;;;;5009142;28;20630;-68
2024/01/25 03:43:35;;;;;;;18.60;4.83;;;11.90;99.90;;;;;;5010449;28;20200;-68
2024/01/25 03:46:01;;;;;;;17.10;4.70;;;11.90;99.90;;;;;;5010978;28;20228;-69
2024/01/25 03:48:26;;;;;;;19.80;5.40;;;12.00;99.90;;;;;;5012743;28;20616;-68
2024/01/25 03:50:56;;;;;;;12.43;5.80;;;12.10;99.90;;;;;;5008090;28;21119;-69
2024/01/25 03:53:24;;;;;;;16.40;3.90;;;12.00;99.90;;;;;;5016271;28;20208;-69
2024/01/25 03:55:50;;;;;;;15.13;3.90;;;12.10;99.90;;;;;;5014913;28;20781;-68
2024/01/25 03:58:20;;;;;;;21.37;5.40;;;12.10;99.90;;;;;;5022325;28;20438;-69
2024/01/25 04:00:45;;;;;;;14.07;4.43;;;12.10;99.90;;;;;;5012478;28;20829;-68
2024/01/25 04:03:11;;;;;;;23.67;5.70;;;12.00;99.90;;;;;;5020952;28;20458;-68
2024/01/25 04:05:39;;;;;;;19.20;5.00;;;12.00;99.90;;;;;;5010265;28;20193;-68
2024/01/25 04:08:05;;;;;;;22.87;4.30;;;12.00;99.90;;;;;;5021866;28;20439;-68
2024/01/25 04:10:31;;;;;;;14.83;4.40;;;12.10;99.90;;;;;;5017180;28;20442;-68
2024/01/25 04:12:57;;;;;;;21.40;4.50;;;12.10;99.90;;;;;;5013512;28;20415;-68
2024/01/25 04:15:22;;;;;;;20.60;4.50;;;12.10;99.90;;;;;;5014414;28;20473;-69
2024/01/25 04:17:48;;;;;;;23.77;5.40;;;12.10;99.90;;;;;;5012667;28;20177;-68
2024/01/25 04:20:15;;;;;;;22.03;5.40;;;12.10;99.90;;;;;;5012764;28;20673;-69
2024/01/25 04:22:40;;;;;;;19.43;5.90;;;12.10;99.90;;;;;;5008148;28;20460;-69
2024/01/25 04:25:07;;;;;;;23.93;5.67;;;12.10;99.90;;;;;;5007797;28;20551;-69
2024/01/25 04:27:32;;;;;;;19.93;6.50;;;12.00;99.90;;;;;;5019459;28;20192;-69
2024/01/25 04:29:58;;;;;;;15.53;4.10;;;12.00;99.90;;;;;;5008218;28;20450;-68
2024/01/25 04:32:23;;;;;;;20.07;5.53;;;12.10;99.90;;;;;;5013416;28;20569;-68
2024/01/25 04:34:49;;;;;;;22.23;4.60;;;12.00;99.90;;;;;;5011526;28;20528;-69
2024/01/25 04:37:15;;;;;;;15.03;4.13;;;12.00;99.90;;;;;;5017799;28;20264;-69
2024/01/25 04:39:41;;;;;;;17.03;4.77;;;12.00;99.90;;;;;;5015265;28;20204;-69
2024/01/25 04:42:06;;;;;;;18.83;5.60;;;12.00;99.90;;;;;;5015987;28;20860;-70
2024/01/25 04:44:32;;;;;;;24.43;4.77;;;12.00;99.90;;;;;;5012012;28;20798;-69
2024/01/25 04:46:57;;;;;;;15.67;4.80;;;11.90;99.90;;;;;;5011239;28;20227;-68
2024/01/25 04:49:23;;;;;;;20.30;5.70;;;11.90;99.90;;;;;;5013041;28;20188;-69
2024/01/25 04:51:50;;;;;;;16.70;5.30;;;11.90;99.90;;;;;;5009571;28;20598;-69
2024/01/25 04:54:15;;;;;;;18.07;4.90;;;11.80;99.90;;;;;;5018835;28;20196;-69
2024/01/25 04:56:42;;;;;;;15.37;4.37;;;11.80;99.90;;;;;;5012835;28;20949;-69
2024/01/25 04:59:07;;;;;;;19.07;4.90;;;11.80;99.90;;;;;;5020284;28;20266;-69
2024/01/25 05:01:33;;;;;;;15.83;4.30;;;11.80;99.90;;;;;;5013942;28;22004;-69
2024/01/25 05:03:59;;;;;;;18.57;4.53;;;11.80;99.90;;;;;;5017256;28;20204;-69
2024/01/25 05:06:25;;;;;;;14.53;4.30;;;11.90;99.90;;;;;;5017818;28;20573;-69
2024/01/25 05:08:51;;;;;;;21.70;5.40;;;11.80;99.90;;;;;;5015188;28;20439;-69
2024/01/25 05:11:16;;;;;;;21.50;5.00;;;11.70;99.90;;;;;;5021413;28;20461;-69
2024/01/25 05:13:42;;;;;;;22.53;4.80;;;11.60;99.90;;;;;;5012446;28;20587;-68
2024/01/25 05:16:08;;;;;;;27.40;4.70;;;11.60;99.90;;;;;;5013228;28;20185;-69
2024/01/25 05:18:33;;;;;;;16.57;4.37;;;11.60;99.90;;;;;;5015058;28;20183;-69
2024/01/25 05:20:59;;;;;;;24.93;4.90;;;11.60;99.90;;;;;;5007617;28;20191;-68
2024/01/25 05:23:24;;;;;;;14.00;4.13;;;11.50;99.90;;;;;;5015327;28;20201;-69
2024/01/25 05:25:50;;;;;;;24.20;5.80;;;11.50;99.90;;;;;;5016523;28;20317;-69
2024/01/25 05:28:16;;;;;;;23.57;4.87;;;11.50;99.90;;;;;;5017641;28;20545;-68
2024/01/25 05:30:41;;;;;;;20.63;5.43;;;11.50;99.90;;;;;;5011263;28;20583;-68
2024/01/25 05:33:07;;;;;;;15.63;4.60;;;11.50;99.90;;;;;;5015844;28;20900;-68
2024/01/25 05:35:35;;;;;;;18.53;4.87;;;11.40;99.90;;;;;;5015434;28;20208;-68
2024/01/25 05:38:01;;;;;;;21.13;5.93;;;11.40;99.90;;;;;;5018091;28;20188;-68
2024/01/25 05:40:26;;;;;;;17.00;4.50;;;11.40;99.90;;;;;;5009712;28;20908;-68
2024/01/25 05:42:52;;;;;;;23.73;5.07;;;11.40;99.90;;;;;;5011364;28;20767;-69
2024/01/25 05:45:20;;;;;;;13.43;4.13;;;11.30;99.90;;;;;;5012500;28;20603;-69
2024/01/25 05:47:46;;;;;;;17.50;4.97;;;11.30;99.90;;;;;;5016758;28;20303;-69
2024/01/25 05:50:11;;;;;;;18.07;5.27;;;11.30;99.90;;;;;;5014706;28;21004;-69
2024/01/25 05:52:37;;;;;;;22.37;4.40;;;11.30;99.90;;;;;;5015998;28;20271;-70
2024/01/25 05:55:04;;;;;;;16.93;4.90;;;11.30;99.90;;;;;;5010286;28;20261;-69
2024/01/25 05:57:30;;;;;;;15.07;4.57;;;11.30;99.90;;;;;;5017582;28;20225;-69
2024/01/25 05:59:56;;;;;;;21.67;4.80;;;11.30;99.90;;;;;;5014701;28;21214;-69
2024/01/25 06:02:21;;;;;;;17.20;5.43;;;11.30;99.90;;;;;;5009925;28;20593;-69
2024/01/25 06:04:47;;;;;;;19.57;5.27;;;11.30;99.90;;;;;;5016281;28;20745;-68
2024/01/25 06:07:12;;;;;;;26.33;4.90;;;11.10;99.90;;;;;;5013468;28;20638;-68
2024/01/25 06:09:38;;;;;;;15.70;5.47;;;11.20;99.90;;;;;;5017191;28;20189;-68
2024/01/25 06:12:04;;;;;;;25.77;5.43;;;11.20;99.90;;;;;;5021633;28;20246;-69
2024/01/25 06:14:30;;;;;;;20.60;5.83;;;11.10;99.90;;;;;;5019117;28;20262;-69
2024/01/25 06:16:56;;;;;;;15.10;4.40;;;11.00;99.90;;;;;;5014789;28;20446;-69
2024/01/25 06:19:22;;;;;;;12.90;4.80;;;11.10;99.90;;;;;;5017383;28;20607;-69
2024/01/25 06:21:47;;;;;;;18.77;5.60;;;11.10;99.90;;;;;;5007397;28;20530;-68
2024/01/25 06:24:13;;;;;;;23.83;5.37;;;11.10;99.90;;;;;;5008129;28;20220;-69
2024/01/25 06:26:39;;;;;;;27.50;6.00;;;11.00;99.90;;;;;;5019488;28;20187;-68
2024/01/25 06:29:04;;;;;;;22.67;5.40;;;11.00;99.90;;;;;;5012071;28;20320;-68
2024/01/25 06:31:30;;;;;;;19.17;6.60;;;10.90;99.90;;;;;;5013888;28;20603;-68
2024/01/25 06:33:55;;;;;;;17.70;5.30;;;10.90;99.90;;;;;;5020317;28;20470;-68
2024/01/25 06:36:22;;;;;;;17.70;5.00;;;11.00;99.90;;;;;;5010595;28;20668;-68
2024/01/25 06:38:48;;;;;;;24.43;5.33;;;11.00;99.90;;;;;;5015209;28;20285;-69
2024/01/25 06:41:14;;;;;;;12.57;5.30;;;10.90;99.90;;;;;;5014097;28;20427;-68
2024/01/25 06:43:40;;;;;;;20.60;5.03;;;10.90;99.90;;;;;;5013994;28;20227;-69
2024/01/25 06:46:08;;;;;;;17.13;5.30;;;10.80;99.90;;;;;;5011131;28;20491;-69
2024/01/25 06:48:34;;;;;;;14.93;4.13;;;10.80;99.90;;;;;;5010340;28;20189;-70
2024/01/25 06:51:00;;;;;;;28.37;5.10;;;10.80;99.90;;;;;;5007159;28;20439;-68
2024/01/25 06:53:26;;;;;;;24.80;5.83;;;10.80;99.90;;;;;;5007098;28;20201;-68
2024/01/25 06:55:52;;;;;;;23.67;5.30;;;10.70;99.90;;;;;;5004468;28;20519;-68
2024/01/25 06:58:18;;;;;;;18.40;4.40;;;10.60;99.90;;;;;;5018250;28;20272;-69
2024/01/25 07:00:45;;;;;;;19.43;5.37;;;10.60;99.90;;;;;;5003748;28;20187;-68
2024/01/25 07:03:10;;;;;;;19.20;4.60;;;10.60;99.90;;;;;;5014335;28;20435;-69
2024/01/25 07:05:36;;;;;;;13.30;4.83;;;10.50;99.90;;;;;;5011659;28;20500;-69
2024/01/25 07:08:02;;;;;;;27.40;6.33;;;10.60;99.90;;;;;;5017007;28;20191;-69
2024/01/25 07:10:28;;;;;;;18.73;4.60;;;10.60;99.90;;;;;;5012406;28;20281;-70
2024/01/25 07:12:54;;;;;;;22.37;7.50;;;10.50;99.90;;;;;;5012355;28;21005;-68
2024/01/25 07:15:20;;;;;;;13.97;4.57;;;10.40;99.90;;;;;;5008610;28;20212;-69
2024/01/25 07:17:46;;;;;;;14.03;4.17;;;10.40;99.90;;;;;;5015515;28;20432;-69
2024/01/25 07:20:12;;;;;;;15.07;4.57;;;10.40;99.90;;;;;;5008975;28;20463;-68
2024/01/25 07:22:38;;;;;;;13.67;4.43;;;10.40;99.90;;;;;;5008772;28;20605;-68
2024/01/25 07:25:05;;;;;;;15.00;5.10;;;10.40;99.90;;;;;;5017132;28;20571;-68
2024/01/25 07:27:30;;;;;;;18.10;5.63;;;10.30;99.90;;;;;;5018075;28;20936;-69
2024/01/25 07:29:56;;;;;;;19.73;5.53;;;10.30;99.90;;;;;;5013646;28;22019;-69
2024/01/25 07:32:50;;;;;;;15.73;4.60;;;10.40;99.90;;;;;;5018650;28;20185;-69
2024/01/25 07:35:16;;;;;;;14.13;5.10;;;10.30;99.90;;;;;;5017716;28;20208;-69
2024/01/25 07:37:41;;;;;;;16.10;4.20;;;10.20;99.90;;;;;;5012360;28;20443;-69
2024/01/25 07:40:08;;;;;;;18.10;4.97;;;10.20;99.90;;;;;;5013918;28;20172;-69
2024/01/25 07:42:34;;;;;;;17.67;4.57;;;10.10;99.90;;;;;;5009024;28;20211;-69
2024/01/25 07:45:00;;;;;;;13.00;4.37;;;10.20;99.90;;;;;;5014173;28;20460;-69
2024/01/25 07:47:26;;;;;;;18.60;6.17;;;10.20;99.90;;;;;;5010978;28;20272;-70
2024/01/25 07:49:52;;;;;;;12.80;4.03;;;10.10;99.90;;;;;;5011557;28;20573;-69
2024/01/25 07:52:17;;;;;;;21.80;4.80;;;10.20;99.90;;;;;;5008122;28;20862;-69
2024/01/25 07:54:44;;;;;;;17.87;4.33;;;10.20;99.90;;;;;;5012568;28;20614;-69
2024/01/25 07:57:09;;;;;;;24.03;4.30;;;10.20;99.90;;;;;;5015858;28;20192;-69
2024/01/25 07:59:35;;;;;;;18.10;4.10;;;10.30;99.90;;;;;;5008061;28;20808;-69
2024/01/25 08:02:01;;;;;;;14.47;3.73;;;10.30;99.90;;;;;;5006753;28;20546;-69
2024/01/25 08:04:26;;;;;;;14.10;4.30;;;10.40;99.90;;;;;;5007821;28;20212;-70
2024/01/25 08:06:52;;;;;;;15.90;4.37;;;10.40;99.90;;;;;;5011182;28;20200;-70
2024/01/25 08:09:18;;;;;;;10.37;3.90;;;10.40;99.90;;;;;;5012958;28;20185;-70
2024/01/25 08:11:44;;;;;;;12.07;5.20;;;10.50;99.90;;;;;;5008612;28;20436;-70
2024/01/25 08:14:10;;;;;;;15.63;4.23;;;10.40;99.90;;;;;;5013453;28;20876;-70
2024/01/25 08:16:36;;;;;;;11.50;3.87;;;10.40;99.90;;;;;;5010949;28;20820;-70
2024/01/25 08:19:02;;;;;;;18.50;4.60;;;10.40;99.90;;;;;;5013923;28;20424;-70
2024/01/25 08:21:28;;;;;;;12.43;3.80;;;10.50;99.90;;;;;;5012409;28;20442;-70
2024/01/25 08:23:54;;;;;;;9.07;4.67;;;10.40;99.90;;;;;;5010855;28;20458;-70
2024/01/25 08:26:19;;;;;;;11.17;5.23;;;10.40;99.90;;;;;;5011757;28;20188;-70
2024/01/25 08:28:46;;;;;;;12.87;5.10;;;10.40;99.90;;;;;;5017138;28;20181;-70
2024/01/25 08:31:12;;;;;;;10.43;3.80;;;10.40;99.90;;;;;;5013928;28;20647;-70
2024/01/25 08:33:44;;;;;;;10.87;3.33;;;10.50;99.90;;;;;;5016260;28;20478;-70
2024/01/25 08:36:10;;;;;;;12.30;3.70;;;10.50;99.90;;;;;;5014432;28;20347;-69
2024/01/25 08:38:35;;;;;;;12.07;3.10;;;10.50;99.90;;;;;;5016187;28;20471;-69
2024/01/25 08:41:01;;;;;;;14.40;4.03;;;10.60;99.90;;;;;;5016004;28;20459;-69
2024/01/25 08:43:27;;;;;;;14.53;3.83;;;10.70;99.90;;;;;;5016923;28;20332;-70
2024/01/25 08:45:52;;;;;;;11.10;3.70;;;10.70;99.90;;;;;;5014524;28;20624;-69
2024/01/25 08:48:18;;;;;;;9.97;3.37;;;10.70;99.90;;;;;;5009411;28;20445;-70
2024/01/25 08:50:44;;;;;;;11.60;4.13;;;10.70;99.90;;;;;;5013720;28;20535;-70
2024/01/25 08:53:09;;;;;;;9.40;2.93;;;10.70;99.90;;;;;;5015405;28;20181;-69
2024/01/25 08:55:35;;;;;;;11.07;3.27;;;10.70;99.90;;;;;;5014257;28;20685;-69
2024/01/25 08:58:01;;;;;;;14.13;4.40;;;10.70;99.90;;;;;;5010431;28;20192;-69
2024/01/25 09:00:26;;;;;;;13.90;4.43;;;10.70;99.90;;;;;;5019132;28;20553;-69
2024/01/25 09:02:53;;;;;;;13.20;3.87;;;10.80;99.90;;;;;;5011359;28;20683;-70
2024/01/25 09:05:18;;;;;;;16.40;4.03;;;10.60;99.90;;;;;;5010352;28;20205;-69
2024/01/25 09:07:44;;;;;;;15.87;4.67;;;10.60;99.90;;;;;;5012053;28;20571;-69
2024/01/25 09:10:11;;;;;;;12.70;4.27;;;10.70;99.90;;;;;;5013428;28;20582;-70
2024/01/25 09:12:37;;;;;;;16.47;5.00;;;10.70;99.90;;;;;;5012586;28;20185;-70
2024/01/25 09:15:03;;;;;;;15.53;4.63;;;10.70;99.90;;;;;;5013308;28;21082;-70
2024/01/25 09:17:29;;;;;;;9.40;4.50;;;10.70;99.90;;;;;;5012041;28;20940;-70
2024/01/25 09:19:54;;;;;;;15.70;4.77;;;10.90;99.90;;;;;;5012837;28;20438;-70
2024/01/25 09:22:20;;;;;;;14.13;4.30;;;10.90;99.90;;;;;;5014235;28;20686;-70
2024/01/25 09:24:46;;;;;;;12.60;4.23;;;10.90;99.90;;;;;;5019267;28;20262;-70
2024/01/25 09:27:12;;;;;;;18.60;5.00;;;11.00;99.90;;;;;;5016035;28;20181;-70
2024/01/25 09:29:39;;;;;;;11.90;5.03;;;11.00;99.90;;;;;;5015228;28;20445;-69
2024/01/25 09:32:06;;;;;;;14.90;4.70;;;11.10;99.90;;;;;;5012392;28;20508;-69
2024/01/25 09:34:31;;;;;;;15.20;4.10;;;11.20;99.90;;;;;;5018234;28;20544;-68
2024/01/25 09:36:57;;;;;;;10.33;4.20;;;11.30;99.90;;;;;;5015839;28;21230;-69
2024/01/25 09:39:22;;;;;;;11.60;3.90;;;11.30;99.90;;;;;;5014640;28;20565;-68
2024/01/25 09:41:51;;;;;;;17.20;4.60;;;11.30;99.90;;;;;;5014888;28;20181;-70
2024/01/25 09:44:17;;;;;;;11.53;5.90;;;11.30;99.90;;;;;;5020077;28;20212;-70
2024/01/25 09:46:44;;;;;;;12.00;3.93;;;11.40;99.90;;;;;;5019662;28;20430;-70
2024/01/25 09:49:10;;;;;;;11.93;3.90;;;11.50;99.90;;;;;;5010229;28;20777;-70
2024/01/25 09:51:41;;;;;;;11.00;4.50;;;11.60;99.90;;;;;;5013141;28;20428;-69
2024/01/25 09:54:07;;;;;;;16.47;5.03;;;11.60;99.90;;;;;;5015441;28;20482;-69
2024/01/25 09:56:33;;;;;;;11.73;4.90;;;11.70;99.90;;;;;;5012788;28;20428;-69
2024/01/25 09:59:00;;;;;;;12.80;4.20;;;11.60;99.90;;;;;;5016653;28;20444;-69
2024/01/25 10:01:26;;;;;;;16.10;4.70;;;11.60;99.90;;;;;;5020804;28;20435;-70
2024/01/25 10:03:51;;;;;;;13.90;3.90;;;11.70;99.90;;;;;;5012478;28;20452;-69
2024/01/25 10:06:17;;;;;;;13.50;4.33;;;11.70;99.90;;;;;;5025656;28;20535;-69
2024/01/25 10:08:44;;;;;;;11.60;3.70;;;11.60;99.90;;;;;;5012285;28;20662;-69
2024/01/25 10:11:11;;;;;;;12.03;4.10;;;11.60;99.90;;;;;;4999329;28;20985;-70
2024/01/25 10:13:41;;;;;;;17.67;3.70;;;11.60;99.90;;;;;;5023930;28;20545;-69
2024/01/25 10:16:10;;;;;;;14.37;4.20;;;11.70;99.90;;;;;;5021115;28;20548;-68
2024/01/25 10:18:36;;;;;;;11.50;3.80;;;11.70;99.90;;;;;;5020493;28;20439;-69
2024/01/25 10:21:02;;;;;;;16.60;5.30;;;11.60;99.90;;;;;;5016099;28;20440;-69
2024/01/25 10:23:29;;;;;;;16.47;5.10;;;11.50;99.90;;;;;;5014370;28;20192;-73
2024/01/25 10:25:56;;;;;;;17.93;4.17;;;11.60;99.90;;;;;;5014230;28;20464;-71
2024/01/25 10:28:24;;;;;;;14.33;5.83;;;11.60;99.90;;;;;;5016690;28;20485;-72
2024/01/25 10:30:50;;;;;;;11.23;3.87;;;11.70;99.90;;;;;;5010141;28;20485;-71
2024/01/25 10:33:17;;;;;;;22.93;3.63;;;11.70;99.90;;;;;;5015535;28;20451;-70
2024/01/25 10:35:49;;;;;;;15.97;3.87;;;11.70;99.90;;;;;;5011194;28;20985;-70
2024/01/25 10:38:18;;;;;;;21.57;6.40;;;11.80;99.90;;;;;;5009477;28;20503;-70
2024/01/25 10:40:46;;;;;;;18.70;3.90;;;11.80;99.90;;;;;;5013281;28;20431;-70
2024/01/25 10:43:12;;;;;;;14.97;4.73;;;12.10;99.90;;;;;;5017981;28;20436;-71
2024/01/25 10:45:38;;;;;;;15.63;4.17;;;12.20;99.90;;;;;;5016554;28;20960;-70
2024/01/25 10:48:05;;;;;;;15.23;4.43;;;12.40;99.90;;;;;;5014608;28;20189;-71
2024/01/25 10:50:30;;;;;;;11.87;3.67;;;12.50;99.90;;;;;;5011038;28;20188;-70
2024/01/25 10:52:57;;;;;;;20.83;4.50;;;12.60;99.90;;;;;;5016847;28;20440;-71
2024/01/25 10:55:23;;;;;;;16.60;4.70;;;12.60;99.90;;;;;;5010983;28;20250;-70
2024/01/25 10:57:49;;;;;;;19.90;4.80;;;12.60;99.90;;;;;;5022537;28;20467;-70
2024/01/25 11:00:22;;;;;;;11.60;3.90;;;12.80;99.90;;;;;;5019105;28;20419;-71
2024/01/25 11:02:49;;;;;;;14.50;5.90;;;12.80;99.90;;;;;;5017262;28;20177;-70
2024/01/25 11:05:17;;;;;;;9.53;4.00;;;12.60;99.90;;;;;;5018585;28;20447;-71
2024/01/25 11:07:47;;;;;;;10.53;3.53;;;12.40;99.90;;;;;;5015415;28;20447;-70
2024/01/25 11:10:21;;;;;;;18.27;4.50;;;12.30;99.90;;;;;;5043257;28;21243;-70
2024/01/25 11:13:14;;;;;;;13.33;5.07;;;12.40;99.90;;;;;;5027703;28;20796;-71
2024/01/25 11:15:39;;;;;;;14.40;4.13;;;12.50;99.90;;;;;;5013169;28;20436;-71
2024/01/25 11:18:08;;;;;;;10.10;3.80;;;12.60;99.90;;;;;;5013922;28;20794;-70
2024/01/25 11:20:35;;;;;;;13.43;5.47;;;12.50;99.90;;;;;;5011338;28;20751;-70
2024/01/25 11:23:06;;;;;;;18.23;5.40;;;12.60;99.90;;;;;;5013569;28;20435;-71
2024/01/25 11:25:33;;;;;;;17.23;3.63;;;12.50;99.90;;;;;;5012500;28;20781;-72
2024/01/25 11:28:03;;;;;;;12.30;4.53;;;12.50;99.90;;;;;;5008743;28;20921;-71
2024/01/25 11:30:32;;;;;;;14.87;5.23;;;12.60;99.90;;;;;;5012749;28;20798;-71
2024/01/25 11:32:57;;;;;;;15.60;3.93;;;12.70;99.90;;;;;;5012316;28;20439;-70
2024/01/25 11:35:23;;;;;;;18.00;3.93;;;12.80;99.90;;;;;;5015421;28;20411;-71
2024/01/25 11:37:51;;;;;;;10.47;4.17;;;12.80;99.90;;;;;;5012924;28;20258;-71
2024/01/25 11:40:17;;;;;;;14.47;4.73;;;12.90;99.90;;;;;;5010579;28;20192;-71
2024/01/25 11:42:44;;;;;;;11.13;3.83;;;13.00;99.90;;;;;;5016120;28;20518;-70
2024/01/25 11:45:11;;;;;;;14.13;4.10;;;13.00;99.90;;;;;;5013898;28;20460;-70
2024/01/25 11:47:38;;;;;;;15.20;4.30;;;13.00;99.90;;;;;;5016248;28;20481;-69
2024/01/25 11:50:05;;;;;;;15.03;3.53;;;12.90;99.90;;;;;;5010654;28;20482;-70
2024/01/25 11:52:34;;;;;;;12.43;4.33;;;12.90;99.90;;;;;;5010541;28;20482;-70
2024/01/25 11:55:06;;;;;;;11.17;4.33;;;12.90;99.90;;;;;;5014823;28;20442;-70
2024/01/25 11:57:35;;;;;;;17.80;4.80;;;12.80;99.90;;;;;;5011749;28;20446;-70
2024/01/25 12:00:02;;;;;;;12.67;3.90;;;12.70;99.90;;;;;;5011754;28;20450;-69
2024/01/25 12:02:28;;;;;;;13.00;4.33;;;12.70;99.90;;;;;;5012828;28;20443;-70
2024/01/25 12:04:56;;;;;;;15.67;4.90;;;12.60;99.90;;;;;;5014503;28;20446;-68
2024/01/25 12:07:21;;;;;;;13.23;4.13;;;12.60;99.90;;;;;;5005684;28;20442;-68
2024/01/25 12:10:05;;;;;;;13.40;4.30;;;12.80;99.90;;;;;;5014400;28;20466;-70
2024/01/25 12:12:30;;;;;;;11.77;4.00;;;12.90;99.90;;;;;;5012693;28;20598;-71
2024/01/25 12:15:00;;;;;;;16.37;4.43;;;13.20;99.90;;;;;;5013555;28;20479;-71
2024/01/25 12:17:32;;;;;;;15.90;4.57;;;13.40;99.90;;;;;;5007352;28;20177;-71
2024/01/25 12:19:59;;;;;;;10.93;4.00;;;13.70;99.90;;;;;;5012253;28;20482;-72
2024/01/25 12:22:28;;;;;;;12.80;3.80;;;13.90;99.90;;;;;;4989088;28;20523;-71
2024/01/25 12:24:54;;;;;;;14.40;5.03;;;14.20;99.90;;;;;;5000976;28;20451;-71
2024/01/25 12:27:22;;;;;;;12.17;4.13;;;15.00;99.90;;;;;;5005589;28;20476;-71
2024/01/25 12:29:50;;;;;;;14.10;3.80;;;16.30;99.90;;;;;;5003688;28;20475;-72
2024/01/25 12:32:16;;;;;;;14.03;4.80;;;16.80;99.90;;;;;;5005398;28;20467;-71
2024/01/25 12:34:43;;;;;;;16.63;4.30;;;17.50;99.90;;;;;;5003467;28;20453;-72